Terminal Aerodrome Forecast
Issued by NWS

Home | Current Version | Previous Version | Text Only | Print | Product List | Glossary On
Versions: 1 2 3 4 5 6 7 8 9 10 11 12 13
000
FTUS45 KRIW 222300
TAFCOD
TAF
KCOD 222326Z 2300/2324 01009KT P6SM VCSH BKN040
     FM230400 01006KT P6SM -SHRA BKN030
     FM230900 36007KT 6SM BR VCSH FEW005 SCT050 BKN200
     FM231500 27008KT P6SM SCT070
     FM232200 34007KT P6SM VCSH SCT060
      AMD LTD TO CLD VIS AND WIND=

USA.gov is the U.S. government's official web portal to all federal, state and local government web resources and services.